Thunder radar more information blitzortung!


Radar de pluja more information rain snow radar


Visita la nostra xarxa de llocs de meteo:

Template documentation
and downloads

And another site



No particular awareness of the weather is required.    There are no Weather-warnings

Pagina Historial Weather Underground text

Diari Resum Juliol 20, 2017 Unitats:  Tant    Imperial   Mètric
« Previous Dia
SegĂźent Dia »
Diari Setmana Mensual Anual Personalitzada
  Maxima: Minima: Media:
Temperatura: 86 °F /  30.0 °C 70.7 °F /  21.5 °C 79.2 °F /  26.2 °C
Punt de rosada: 66.7 °F /  19.3 °C 59.2 °F /  15.1 °C 62.1 °F /  16.7 °C
Humitat: 77 % 44 % 56 %
Wind Speed: 12.7 mph /  20.4 km/h - 5.3 mph /  8.5 km/h
RĂ fegues de vent: 13 mph /  20.9 km/h - -
Vent:- - ESE
Pression baro: 29.9 in /  1011.7 hPa 29.8 in /  1008.0 hPa -
Precipitacions: 0 in /  0.0 mm    
Historical Graphs
 
 
Dades de taula per Juliol 20, 2017
Temps Temperatura Punt de rosada Pression baro Vent Wind Speed RĂ fegues de vent Humitat Rainfall Rate (Hourly)
00:00 74.5 °F /  23.6 °C 66.7 °F /  19.3 °C 29.8 in /  1010.0 hPa NE 3 mph /  4.8 km/h 6 mph /  9.7 km/h 77 % 0 in /  0.0 mm
00:05 74.3 °F /  23.5 °C 66.6 °F /  19.2 °C 29.8 in /  1010.0 hPa NE 3 mph /  4.8 km/h 7 mph /  11.3 km/h 77 % 0 in /  0.0 mm
00:15 72.5 °F /  22.5 °C 64 °F /  17.8 °C 29.8 in /  1009.0 hPa NE 2 mph /  3.2 km/h 2 mph /  3.2 km/h 75 % 0 in /  0.0 mm
00:25 72.5 °F /  22.5 °C 64 °F /  17.8 °C 29.8 in /  1010.0 hPa NE 3 mph /  4.8 km/h 4 mph /  6.4 km/h 75 % 0 in /  0.0 mm
00:35 72.5 °F /  22.5 °C 64.6 °F /  18.1 °C 29.8 in /  1010.0 hPa ENE 5 mph /  8.0 km/h 6 mph /  9.7 km/h 76 % 0 in /  0.0 mm
00:45 72.5 °F /  22.5 °C 64.6 °F /  18.1 °C 29.8 in /  1010.0 hPa ENE 3 mph /  4.8 km/h 4 mph /  6.4 km/h 76 % 0 in /  0.0 mm
00:55 72.5 °F /  22.5 °C 64 °F /  17.8 °C 29.8 in /  1009.0 hPa NE 3 mph /  4.8 km/h 6 mph /  9.7 km/h 75 % 0 in /  0.0 mm
01:05 72.5 °F /  22.5 °C 64 °F /  17.8 °C 29.8 in /  1009.0 hPa NE 3 mph /  4.8 km/h 5 mph /  8.0 km/h 75 % 0 in /  0.0 mm
01:15 72.5 °F /  22.5 °C 64 °F /  17.8 °C 29.8 in /  1010.0 hPa NE 3 mph /  4.8 km/h 4 mph /  6.4 km/h 75 % 0 in /  0.0 mm
01:25 72.5 °F /  22.5 °C 64 °F /  17.8 °C 29.8 in /  1010.0 hPa East 2 mph /  3.2 km/h 4 mph /  6.4 km/h 75 % 0 in /  0.0 mm
01:35 72.5 °F /  22.5 °C 64 °F /  17.8 °C 29.8 in /  1010.0 hPa ENE 2 mph /  3.2 km/h 3 mph /  4.8 km/h 75 % 0 in /  0.0 mm
01:45 72.3 °F /  22.4 °C 63.9 °F /  17.7 °C 29.8 in /  1010.0 hPa NE 2 mph /  3.2 km/h 3 mph /  4.8 km/h 75 % 0 in /  0.0 mm
01:55 72.5 °F /  22.5 °C 64.6 °F /  18.1 °C 29.8 in /  1010.0 hPa NE 2 mph /  3.2 km/h 5 mph /  8.0 km/h 76 % 0 in /  0.0 mm
02:05 72.5 °F /  22.5 °C 64 °F /  17.8 °C 29.8 in /  1010.0 hPa NE 3 mph /  4.8 km/h 4 mph /  6.4 km/h 75 % 0 in /  0.0 mm
02:15 71.4 °F /  21.9 °C 62.8 °F /  17.1 °C 29.8 in /  1010.0 hPa NNE 3 mph /  4.8 km/h 3 mph /  4.8 km/h 74 % 0 in /  0.0 mm
02:25 71.2 °F /  21.8 °C 62.1 °F /  16.7 °C 29.8 in /  1010.0 hPa Calm   4 mph /  6.4 km/h 73 % 0 in /  0.0 mm
02:35 71.6 °F /  22.0 °C 61.7 °F /  16.5 °C 29.8 in /  1010.0 hPa NNE 2 mph /  3.2 km/h 2 mph /  3.2 km/h 71 % 0 in /  0.0 mm
02:45 71.4 °F /  21.9 °C 61.9 °F /  16.6 °C 29.8 in /  1010.0 hPa NE 3 mph /  4.8 km/h 3 mph /  4.8 km/h 72 % 0 in /  0.0 mm
02:55 72 °F /  22.2 °C 62.1 °F /  16.7 °C 29.8 in /  1010.0 hPa NE 2 mph /  3.2 km/h 4 mph /  6.4 km/h 71 % 0 in /  0.0 mm
03:05 72.9 °F /  22.7 °C 62.4 °F /  16.9 °C 29.8 in /  1010.0 hPa NE 3 mph /  4.8 km/h 4 mph /  6.4 km/h 70 % 0 in /  0.0 mm
03:15 73 °F /  22.8 °C 62.2 °F /  16.8 °C 29.8 in /  1010.7 hPa NNE 3 mph /  4.8 km/h 5 mph /  8.0 km/h 69 % 0 in /  0.0 mm
03:25 74.3 °F /  23.5 °C 63.5 °F /  17.5 °C 29.8 in /  1010.0 hPa NE 1 mph /  1.6 km/h 3 mph /  4.8 km/h 69 % 0 in /  0.0 mm
03:35 74.7 °F /  23.7 °C 63.3 °F /  17.4 °C 29.8 in /  1010.0 hPa NE 2 mph /  3.2 km/h 3 mph /  4.8 km/h 68 % 0 in /  0.0 mm
03:45 75.4 °F /  24.1 °C 63.1 °F /  17.3 °C 29.8 in /  1010.7 hPa NNE 1 mph /  1.6 km/h 2 mph /  3.2 km/h 66 % 0 in /  0.0 mm
03:55 75.4 °F /  24.1 °C 62.8 °F /  17.1 °C 29.8 in /  1010.7 hPa NE 2 mph /  3.2 km/h 3 mph /  4.8 km/h 65 % 0 in /  0.0 mm
04:05 76.3 °F /  24.6 °C 63.7 °F /  17.6 °C 29.8 in /  1010.7 hPa ENE 2 mph /  3.2 km/h 2 mph /  3.2 km/h 65 % 0 in /  0.0 mm
04:15 78.1 °F /  25.6 °C 64.6 °F /  18.1 °C 29.8 in /  1010.7 hPa SE 1 mph /  1.6 km/h 3 mph /  4.8 km/h 63 % 0 in /  0.0 mm
04:25 78.6 °F /  25.9 °C 64.6 °F /  18.1 °C 29.9 in /  1011.7 hPa ESE 2 mph /  3.2 km/h 3 mph /  4.8 km/h 62 % 0 in /  0.0 mm
04:35 78.4 °F /  25.8 °C 64.2 °F /  17.9 °C 29.9 in /  1011.7 hPa South 3 mph /  4.8 km/h 3 mph /  4.8 km/h 62 % 0 in /  0.0 mm
04:45 79 °F /  26.1 °C 64.4 °F /  18.0 °C 29.8 in /  1010.7 hPa SSW 2 mph /  3.2 km/h 3 mph /  4.8 km/h 61 % 0 in /  0.0 mm
04:55 79.2 °F /  26.2 °C 64 °F /  17.8 °C 29.9 in /  1011.7 hPa South 1 mph /  1.6 km/h 3 mph /  4.8 km/h 60 % 0 in /  0.0 mm
05:05 79.9 °F /  26.6 °C 64.8 °F /  18.2 °C 29.9 in /  1011.7 hPa SE 3 mph /  4.8 km/h 4 mph /  6.4 km/h 60 % 0 in /  0.0 mm
05:15 79.7 °F /  26.5 °C 63.7 °F /  17.6 °C 29.8 in /  1010.7 hPa ESE 3 mph /  4.8 km/h 5 mph /  8.0 km/h 58 % 0 in /  0.0 mm
05:25 80.8 °F /  27.1 °C 64 °F /  17.8 °C 29.9 in /  1011.7 hPa ESE 3 mph /  4.8 km/h 6 mph /  9.7 km/h 57 % 0 in /  0.0 mm
05:35 80.6 °F /  27.0 °C 63 °F /  17.2 °C 29.9 in /  1011.7 hPa East 2 mph /  3.2 km/h 4 mph /  6.4 km/h 55 % 0 in /  0.0 mm
05:40 80.8 °F /  27.1 °C 63.1 °F /  17.3 °C 29.8 in /  1010.7 hPa East 1 mph /  1.6 km/h 4 mph /  6.4 km/h 55 % 0 in /  0.0 mm
10:40 80.8 °F /  27.1 °C 62.6 °F /  17.0 °C 29.8 in /  1010.7 hPa ESE 2.2 mph /  3.5 km/h 3.3 mph /  5.3 km/h 54 % 0 in /  0.0 mm
10:45 81.3 °F /  27.4 °C 62.6 °F /  17.0 °C 29.8 in /  1010.7 hPa SSE 2.3 mph /  3.7 km/h 2.6 mph /  4.2 km/h 53 % 0 in /  0.0 mm
10:50 82.4 °F /  28.0 °C 64 °F /  17.8 °C 29.8 in /  1010.7 hPa ENE 2.3 mph /  3.7 km/h 2.3 mph /  3.7 km/h 54 % 0 in /  0.0 mm
10:56 81.9 °F /  27.7 °C 62.4 °F /  16.9 °C 29.8 in /  1010.7 hPa West 5.8 mph /  9.3 km/h 5.8 mph /  9.3 km/h 52 % 0 in /  0.0 mm
11:01 81.9 °F /  27.7 °C 63.1 °F /  17.3 °C 29.8 in /  1010.7 hPa NE 4.6 mph /  7.4 km/h 4.6 mph /  7.4 km/h 53 % 0 in /  0.0 mm
11:06 82.4 °F /  28.0 °C 63.5 °F /  17.5 °C 29.8 in /  1010.7 hPa SE 2.6 mph /  4.2 km/h 2.6 mph /  4.2 km/h 53 % 0 in /  0.0 mm
11:11 82.4 °F /  28.0 °C 63.5 °F /  17.5 °C 29.8 in /  1010.7 hPa NNE 3.8 mph /  6.1 km/h 3.8 mph /  6.1 km/h 53 % 0 in /  0.0 mm
11:16 82.9 °F /  28.3 °C 63.5 °F /  17.5 °C 29.8 in /  1010.7 hPa East 3.5 mph /  5.6 km/h 3.5 mph /  5.6 km/h 52 % 0 in /  0.0 mm
11:21 82.9 °F /  28.3 °C 63.5 °F /  17.5 °C 29.8 in /  1010.7 hPa ESE 7.8 mph /  12.6 km/h 7.8 mph /  12.6 km/h 52 % 0 in /  0.0 mm
11:27 81.7 °F /  27.6 °C 62.2 °F /  16.8 °C 29.8 in /  1010.7 hPa East 6.9 mph /  11.1 km/h 6.9 mph /  11.1 km/h 52 % 0 in /  0.0 mm
11:32 82 °F /  27.8 °C 62.1 °F /  16.7 °C 29.8 in /  1010.7 hPa SE 8.1 mph /  13.0 km/h 8.1 mph /  13.0 km/h 51 % 0 in /  0.0 mm
11:37 81.9 °F /  27.7 °C 62.4 °F /  16.9 °C 29.8 in /  1010.7 hPa NNE 4.6 mph /  7.4 km/h 4.6 mph /  7.4 km/h 52 % 0 in /  0.0 mm
11:42 82.6 °F /  28.1 °C 62.6 °F /  17.0 °C 29.8 in /  1010.7 hPa SE 4.6 mph /  7.4 km/h 4.6 mph /  7.4 km/h 51 % 0 in /  0.0 mm
11:47 82.8 °F /  28.2 °C 62.8 °F /  17.1 °C 29.8 in /  1010.7 hPa SSE 5.8 mph /  9.3 km/h 5.8 mph /  9.3 km/h 51 % 0 in /  0.0 mm
11:52 82.4 °F /  28.0 °C 62.4 °F /  16.9 °C 29.8 in /  1010.0 hPa ENE 3.5 mph /  5.6 km/h 3.5 mph /  5.6 km/h 51 % 0 in /  0.0 mm
11:57 82.8 °F /  28.2 °C 63.3 °F /  17.4 °C 29.8 in /  1010.0 hPa ENE 3.5 mph /  5.6 km/h 3.5 mph /  5.6 km/h 52 % 0 in /  0.0 mm
12:02 83.7 °F /  28.7 °C 63.7 °F /  17.6 °C 29.8 in /  1010.0 hPa WSW 3.5 mph /  5.6 km/h 3.5 mph /  5.6 km/h 51 % 0 in /  0.0 mm
12:07 84.2 °F /  29.0 °C 63.5 °F /  17.5 °C 29.8 in /  1010.0 hPa ESE 3.5 mph /  5.6 km/h 3.5 mph /  5.6 km/h 50 % 0 in /  0.0 mm
12:12 84 °F /  28.9 °C 63.9 °F /  17.7 °C 29.8 in /  1010.0 hPa NNE 3.5 mph /  5.6 km/h 3.5 mph /  5.6 km/h 51 % 0 in /  0.0 mm
12:17 84.6 °F /  29.2 °C 63.3 °F /  17.4 °C 29.8 in /  1010.0 hPa ESE 7.8 mph /  12.6 km/h 7.8 mph /  12.6 km/h 49 % 0 in /  0.0 mm
12:22 83.1 °F /  28.4 °C 63.1 °F /  17.3 °C 29.8 in /  1010.0 hPa East 5.8 mph /  9.3 km/h 5.8 mph /  9.3 km/h 51 % 0 in /  0.0 mm
12:27 83.5 °F /  28.6 °C 63.3 °F /  17.4 °C 29.8 in /  1010.0 hPa ESE 10 mph /  16.1 km/h 10 mph /  16.1 km/h 51 % 0 in /  0.0 mm
12:33 84.7 °F /  29.3 °C 64 °F /  17.8 °C 29.8 in /  1010.0 hPa ESE 4.6 mph /  7.4 km/h 4.6 mph /  7.4 km/h 50 % 0 in /  0.0 mm
12:38 83.8 °F /  28.8 °C 63.9 °F /  17.7 °C 29.8 in /  1010.0 hPa East 3.5 mph /  5.6 km/h 4.7 mph /  7.6 km/h 51 % 0 in /  0.0 mm
12:43 83.7 °F /  28.7 °C 63.7 °F /  17.6 °C 29.8 in /  1010.0 hPa ESE 5.8 mph /  9.3 km/h 5.8 mph /  9.3 km/h 51 % 0 in /  0.0 mm
12:48 84.4 °F /  29.1 °C 63.7 °F /  17.6 °C 29.8 in /  1010.0 hPa South 5.8 mph /  9.3 km/h 5.8 mph /  9.3 km/h 50 % 0 in /  0.0 mm
12:53 84.6 °F /  29.2 °C 64.4 °F /  18.0 °C 29.8 in /  1010.0 hPa South 8.1 mph /  13.0 km/h 8.1 mph /  13.0 km/h 51 % 0 in /  0.0 mm
12:58 83.8 °F /  28.8 °C 63.9 °F /  17.7 °C 29.8 in /  1010.0 hPa ESE 9.2 mph /  14.8 km/h 9.2 mph /  14.8 km/h 51 % 0 in /  0.0 mm
13:04 83.1 °F /  28.4 °C 63.1 °F /  17.3 °C 29.8 in /  1010.0 hPa ESE 8.1 mph /  13.0 km/h 8.1 mph /  13.0 km/h 51 % 0 in /  0.0 mm
13:09 83.8 °F /  28.8 °C 63.9 °F /  17.7 °C 29.8 in /  1010.0 hPa ESE 8.5 mph /  13.7 km/h 8.5 mph /  13.7 km/h 51 % 0 in /  0.0 mm
13:14 84.2 °F /  29.0 °C 63.5 °F /  17.5 °C 29.8 in /  1010.0 hPa ESE 4.6 mph /  7.4 km/h 4.6 mph /  7.4 km/h 50 % 0 in /  0.0 mm
13:19 83.1 °F /  28.4 °C 63.1 °F /  17.3 °C 29.8 in /  1010.0 hPa South 9.2 mph /  14.8 km/h 9.2 mph /  14.8 km/h 51 % 0 in /  0.0 mm
13:24 84 °F /  28.9 °C 63.9 °F /  17.7 °C 29.8 in /  1010.0 hPa ESE 8.7 mph /  14.0 km/h 8.7 mph /  14.0 km/h 51 % 0 in /  0.0 mm
13:29 82.8 °F /  28.2 °C 62.8 °F /  17.1 °C 29.8 in /  1010.0 hPa SE 9.2 mph /  14.8 km/h 9.2 mph /  14.8 km/h 51 % 0 in /  0.0 mm
13:34 82.6 °F /  28.1 °C 63.1 °F /  17.3 °C 29.8 in /  1010.0 hPa North 5.8 mph /  9.3 km/h 5.8 mph /  9.3 km/h 52 % 0 in /  0.0 mm
13:40 83.3 °F /  28.5 °C 63.9 °F /  17.7 °C 29.8 in /  1010.0 hPa SSE 3.5 mph /  5.6 km/h 3.5 mph /  5.6 km/h 52 % 0 in /  0.0 mm
13:45 83.3 °F /  28.5 °C 63.9 °F /  17.7 °C 29.8 in /  1010.0 hPa ESE 9.2 mph /  14.8 km/h 9.2 mph /  14.8 km/h 52 % 0 in /  0.0 mm
13:50 83.1 °F /  28.4 °C 63.7 °F /  17.6 °C 29.8 in /  1010.0 hPa ESE 8.1 mph /  13.0 km/h 8.1 mph /  13.0 km/h 52 % 0 in /  0.0 mm
13:55 83.8 °F /  28.8 °C 64.2 °F /  17.9 °C 29.8 in /  1010.0 hPa ESE 8.1 mph /  13.0 km/h 8.1 mph /  13.0 km/h 52 % 0 in /  0.0 mm
14:00 84.9 °F /  29.4 °C 64.2 °F /  17.9 °C 29.8 in /  1010.0 hPa ESE 5.8 mph /  9.3 km/h 5.8 mph /  9.3 km/h 50 % 0 in /  0.0 mm
14:05 85.3 °F /  29.6 °C 64.6 °F /  18.1 °C 29.8 in /  1010.0 hPa East 8.7 mph /  14.0 km/h 8.7 mph /  14.0 km/h 50 % 0 in /  0.0 mm
14:10 84.4 °F /  29.1 °C 63.7 °F /  17.6 °C 29.8 in /  1010.0 hPa ESE 6.9 mph /  11.1 km/h 6.9 mph /  11.1 km/h 50 % 0 in /  0.0 mm
14:15 84.9 °F /  29.4 °C 64.2 °F /  17.9 °C 29.8 in /  1010.0 hPa SE 4.6 mph /  7.4 km/h 4.6 mph /  7.4 km/h 50 % 0 in /  0.0 mm
14:20 84.9 °F /  29.4 °C 64.2 °F /  17.9 °C 29.8 in /  1010.0 hPa ESE 12.7 mph /  20.4 km/h 12.7 mph /  20.4 km/h 50 % 0 in /  0.0 mm
14:25 84.7 °F /  29.3 °C 64 °F /  17.8 °C 29.8 in /  1010.0 hPa East 6 mph /  9.7 km/h 10 mph /  16.1 km/h 50 % 0 in /  0.0 mm
14:30 84.4 °F /  29.1 °C 64.2 °F /  17.9 °C 29.8 in /  1010.0 hPa East 5 mph /  8.0 km/h 13 mph /  20.9 km/h 51 % 0 in /  0.0 mm
14:35 84.4 °F /  29.1 °C 63.7 °F /  17.6 °C 29.8 in /  1010.0 hPa ESE 8 mph /  12.9 km/h 13 mph /  20.9 km/h 50 % 0 in /  0.0 mm
14:40 83.7 °F /  28.7 °C 64.2 °F /  17.9 °C 29.8 in /  1010.0 hPa SE 11.5 mph /  18.5 km/h 11.5 mph /  18.5 km/h 52 % 0 in /  0.0 mm
14:46 84.2 °F /  29.0 °C 64 °F /  17.8 °C 29.8 in /  1010.0 hPa ESE 10.4 mph /  16.7 km/h 10.4 mph /  16.7 km/h 51 % 0 in /  0.0 mm
14:51 84.4 °F /  29.1 °C 64.2 °F /  17.9 °C 29.8 in /  1010.0 hPa East 8.1 mph /  13.0 km/h 8.1 mph /  13.0 km/h 51 % 0 in /  0.0 mm
14:56 84.2 °F /  29.0 °C 64 °F /  17.8 °C 29.8 in /  1010.0 hPa ENE 8.1 mph /  13.0 km/h 8.1 mph /  13.0 km/h 51 % 0 in /  0.0 mm
15:02 84.2 °F /  29.0 °C 64 °F /  17.8 °C 29.8 in /  1010.0 hPa SSW 5.8 mph /  9.3 km/h 5.8 mph /  9.3 km/h 51 % 0 in /  0.0 mm
15:07 85.1 °F /  29.5 °C 64.4 °F /  18.0 °C 29.8 in /  1009.0 hPa ENE 4.6 mph /  7.4 km/h 4.6 mph /  7.4 km/h 50 % 0 in /  0.0 mm
15:12 86 °F /  30.0 °C 65.1 °F /  18.4 °C 29.8 in /  1009.0 hPa ESE 10.5 mph /  16.9 km/h 10.5 mph /  16.9 km/h 50 % 0 in /  0.0 mm
15:17 84.7 °F /  29.3 °C 64 °F /  17.8 °C 29.8 in /  1009.0 hPa ESE 11.5 mph /  18.5 km/h 11.5 mph /  18.5 km/h 50 % 0 in /  0.0 mm
15:18 84.7 °F /  29.3 °C 64 °F /  17.8 °C 29.8 in /  1009.0 hPa East 11.5 mph /  18.5 km/h 11.5 mph /  18.5 km/h 50 % 0 in /  0.0 mm
15:23 84.7 °F /  29.3 °C 64 °F /  17.8 °C 29.8 in /  1010.0 hPa East 11.5 mph /  18.5 km/h 11.5 mph /  18.5 km/h 50 % 0 in /  0.0 mm
15:28 84.4 °F /  29.1 °C 63.1 °F /  17.3 °C 29.8 in /  1010.0 hPa East 11.5 mph /  18.5 km/h 11.5 mph /  18.5 km/h 49 % 0 in /  0.0 mm
15:33 83.8 °F /  28.8 °C 63.9 °F /  17.7 °C 29.8 in /  1010.0 hPa ESE 12.5 mph /  20.1 km/h 12.5 mph /  20.1 km/h 51 % 0 in /  0.0 mm
15:38 83.8 °F /  28.8 °C 63.1 °F /  17.3 °C 29.8 in /  1010.0 hPa SE 6.9 mph /  11.1 km/h 6.9 mph /  11.1 km/h 50 % 0 in /  0.0 mm
15:43 84.4 °F /  29.1 °C 63.1 °F /  17.3 °C 29.8 in /  1010.0 hPa ESE 8.1 mph /  13.0 km/h 8.1 mph /  13.0 km/h 49 % 0 in /  0.0 mm
15:48 84.2 °F /  29.0 °C 63 °F /  17.2 °C 29.8 in /  1010.0 hPa East 10.9 mph /  17.5 km/h 10.9 mph /  17.5 km/h 49 % 0 in /  0.0 mm
15:53 84.4 °F /  29.1 °C 63.1 °F /  17.3 °C 29.8 in /  1009.0 hPa East 9.2 mph /  14.8 km/h 9.2 mph /  14.8 km/h 49 % 0 in /  0.0 mm
15:58 84.2 °F /  29.0 °C 63 °F /  17.2 °C 29.8 in /  1009.0 hPa ESE 12.7 mph /  20.4 km/h 12.7 mph /  20.4 km/h 49 % 0 in /  0.0 mm
16:03 84.6 °F /  29.2 °C 62.8 °F /  17.1 °C 29.8 in /  1009.0 hPa ENE 9.2 mph /  14.8 km/h 9.2 mph /  14.8 km/h 48 % 0 in /  0.0 mm
16:09 84.2 °F /  29.0 °C 63 °F /  17.2 °C 29.8 in /  1010.0 hPa ENE 11.5 mph /  18.5 km/h 11.5 mph /  18.5 km/h 49 % 0 in /  0.0 mm
16:14 84.6 °F /  29.2 °C 62.8 °F /  17.1 °C 29.8 in /  1010.0 hPa SE 11.5 mph /  18.5 km/h 11.5 mph /  18.5 km/h 48 % 0 in /  0.0 mm
16:19 83.7 °F /  28.7 °C 62.4 °F /  16.9 °C 29.8 in /  1010.0 hPa East 9.2 mph /  14.8 km/h 9.2 mph /  14.8 km/h 49 % 0 in /  0.0 mm
16:24 84.7 °F /  29.3 °C 63.5 °F /  17.5 °C 29.8 in /  1010.0 hPa ENE 9.8 mph /  15.8 km/h 9.8 mph /  15.8 km/h 49 % 0 in /  0.0 mm
16:29 84.7 °F /  29.3 °C 63 °F /  17.2 °C 29.8 in /  1010.0 hPa SE 6.9 mph /  11.1 km/h 6.9 mph /  11.1 km/h 48 % 0 in /  0.0 mm
16:34 84.4 °F /  29.1 °C 62.4 °F /  16.9 °C 29.8 in /  1010.0 hPa ENE 6.9 mph /  11.1 km/h 6.9 mph /  11.1 km/h 48 % 0 in /  0.0 mm
16:39 84.2 °F /  29.0 °C 62.4 °F /  16.9 °C 29.8 in /  1009.0 hPa ESE 9.8 mph /  15.8 km/h 9.8 mph /  15.8 km/h 48 % 0 in /  0.0 mm
16:40 84.2 °F /  29.0 °C 62.4 °F /  16.9 °C 29.8 in /  1009.0 hPa ESE 10.9 mph /  17.5 km/h 10.9 mph /  17.5 km/h 48 % 0 in /  0.0 mm
16:45 84.4 °F /  29.1 °C 62.4 °F /  16.9 °C 29.8 in /  1009.0 hPa ESE 6.9 mph /  11.1 km/h 6.9 mph /  11.1 km/h 48 % 0 in /  0.0 mm
16:50 84.2 °F /  29.0 °C 62.4 °F /  16.9 °C 29.8 in /  1009.0 hPa East 8.1 mph /  13.0 km/h 8.1 mph /  13.0 km/h 48 % 0 in /  0.0 mm
16:55 84 °F /  28.9 °C 62.2 °F /  16.8 °C 29.8 in /  1009.0 hPa ENE 10.4 mph /  16.7 km/h 10.4 mph /  16.7 km/h 48 % 0 in /  0.0 mm
17:00 84.7 °F /  29.3 °C 62.2 °F /  16.8 °C 29.8 in /  1009.0 hPa East 9.2 mph /  14.8 km/h 9.2 mph /  14.8 km/h 47 % 0 in /  0.0 mm
17:05 85.1 °F /  29.5 °C 62.6 °F /  17.0 °C 29.8 in /  1009.0 hPa ENE 9.2 mph /  14.8 km/h 9.2 mph /  14.8 km/h 47 % 0 in /  0.0 mm
17:10 84.6 °F /  29.2 °C 61.5 °F /  16.4 °C 29.8 in /  1008.0 hPa ESE 6.9 mph /  11.1 km/h 6.9 mph /  11.1 km/h 46 % 0 in /  0.0 mm
17:15 84.2 °F /  29.0 °C 61.2 °F /  16.2 °C 29.8 in /  1008.0 hPa ENE 8.1 mph /  13.0 km/h 8.1 mph /  13.0 km/h 46 % 0 in /  0.0 mm
17:20 84.6 °F /  29.2 °C 61.5 °F /  16.4 °C 29.8 in /  1008.0 hPa ENE 8.1 mph /  13.0 km/h 8.1 mph /  13.0 km/h 46 % 0 in /  0.0 mm
17:25 84.9 °F /  29.4 °C 61.9 °F /  16.6 °C 29.8 in /  1008.0 hPa East 10.4 mph /  16.7 km/h 10.4 mph /  16.7 km/h 46 % 0 in /  0.0 mm
17:30 84.7 °F /  29.3 °C 61 °F /  16.1 °C 29.8 in /  1008.0 hPa SSE 11.5 mph /  18.5 km/h 11.5 mph /  18.5 km/h 45 % 0 in /  0.0 mm
17:35 84.4 °F /  29.1 °C 60.6 °F /  15.9 °C 29.8 in /  1008.0 hPa NE 10.4 mph /  16.7 km/h 10.4 mph /  16.7 km/h 45 % 0 in /  0.0 mm
17:40 84 °F /  28.9 °C 61 °F /  16.1 °C 29.8 in /  1009.0 hPa ESE 6.9 mph /  11.1 km/h 6.9 mph /  11.1 km/h 46 % 0 in /  0.0 mm
17:45 83.8 °F /  28.8 °C 60.3 °F /  15.7 °C 29.8 in /  1009.0 hPa South 10.4 mph /  16.7 km/h 10.4 mph /  16.7 km/h 45 % 0 in /  0.0 mm
17:51 84.4 °F /  29.1 °C 60.1 °F /  15.6 °C 29.8 in /  1009.0 hPa SE 8.1 mph /  13.0 km/h 8.1 mph /  13.0 km/h 44 % 0 in /  0.0 mm
17:56 83.7 °F /  28.7 °C 60.1 °F /  15.6 °C 29.8 in /  1009.0 hPa ESE 6.9 mph /  11.1 km/h 6.9 mph /  11.1 km/h 45 % 0 in /  0.0 mm
18:01 84.2 °F /  29.0 °C 59.9 °F /  15.5 °C 29.8 in /  1009.0 hPa SE 5.8 mph /  9.3 km/h 5.8 mph /  9.3 km/h 44 % 0 in /  0.0 mm
18:06 83.5 °F /  28.6 °C 59.4 °F /  15.2 °C 29.8 in /  1008.0 hPa ESE 10.4 mph /  16.7 km/h 10.4 mph /  16.7 km/h 44 % 0 in /  0.0 mm
18:11 83.7 °F /  28.7 °C 60.1 °F /  15.6 °C 29.8 in /  1008.0 hPa ENE 6.9 mph /  11.1 km/h 6.9 mph /  11.1 km/h 45 % 0 in /  0.0 mm
18:16 83.7 °F /  28.7 °C 59.4 °F /  15.2 °C 29.8 in /  1008.0 hPa ESE 10.4 mph /  16.7 km/h 10.4 mph /  16.7 km/h 44 % 0 in /  0.0 mm
18:21 83.3 °F /  28.5 °C 59.2 °F /  15.1 °C 29.8 in /  1009.0 hPa ESE 6.9 mph /  11.1 km/h 6.9 mph /  11.1 km/h 44 % 0 in /  0.0 mm
18:26 83.8 °F /  28.8 °C 60.3 °F /  15.7 °C 29.8 in /  1009.0 hPa East 12.3 mph /  19.8 km/h 12.3 mph /  19.8 km/h 45 % 0 in /  0.0 mm
18:31 83.3 °F /  28.5 °C 59.7 °F /  15.4 °C 29.8 in /  1009.0 hPa SSE 6 mph /  9.7 km/h 6 mph /  9.7 km/h 45 % 0 in /  0.0 mm
18:36 82.9 °F /  28.3 °C 59.4 °F /  15.2 °C 29.8 in /  1008.0 hPa SSE 9.2 mph /  14.8 km/h 9.2 mph /  14.8 km/h 45 % 0 in /  0.0 mm
18:42 83.1 °F /  28.4 °C 59.5 °F /  15.3 °C 29.8 in /  1008.0 hPa ESE 5.8 mph /  9.3 km/h 5.8 mph /  9.3 km/h 45 % 0 in /  0.0 mm
18:47 82.9 °F /  28.3 °C 59.4 °F /  15.2 °C 29.8 in /  1008.0 hPa ESE 8.1 mph /  13.0 km/h 8.1 mph /  13.0 km/h 45 % 0 in /  0.0 mm
18:52 82.6 °F /  28.1 °C 59.7 °F /  15.4 °C 29.8 in /  1009.0 hPa SE 12.3 mph /  19.8 km/h 12.3 mph /  19.8 km/h 46 % 0 in /  0.0 mm
18:57 82.6 °F /  28.1 °C 59.7 °F /  15.4 °C 29.8 in /  1009.0 hPa South 4.6 mph /  7.4 km/h 4.6 mph /  7.4 km/h 46 % 0 in /  0.0 mm
19:02 82.4 °F /  28.0 °C 59.5 °F /  15.3 °C 29.8 in /  1009.0 hPa ENE 5.8 mph /  9.3 km/h 5.8 mph /  9.3 km/h 46 % 0 in /  0.0 mm
19:07 81.7 °F /  27.6 °C 59.5 °F /  15.3 °C 29.8 in /  1009.0 hPa South 4.6 mph /  7.4 km/h 4.6 mph /  7.4 km/h 47 % 0 in /  0.0 mm
19:12 81.3 °F /  27.4 °C 59.7 °F /  15.4 °C 29.8 in /  1009.0 hPa ESE 6 mph /  9.7 km/h 6 mph /  9.7 km/h 48 % 0 in /  0.0 mm
19:15 73.8 °F /  23.2 °C 60.8 °F /  16.0 °C 29.8 in /  1010.7 hPa ENE 1 mph /  1.6 km/h 2 mph /  3.2 km/h 64 % 0 in /  0.0 mm
19:17 81.1 °F /  27.3 °C 59.5 °F /  15.3 °C 29.8 in /  1009.0 hPa SSE 6 mph /  9.7 km/h 6 mph /  9.7 km/h 48 % 0 in /  0.0 mm
19:22 80.8 °F /  27.1 °C 59.7 °F /  15.4 °C 29.8 in /  1009.0 hPa East 5.8 mph /  9.3 km/h 5.8 mph /  9.3 km/h 49 % 0 in /  0.0 mm
19:25 73.6 °F /  23.1 °C 60.6 °F /  15.9 °C 29.8 in /  1010.7 hPa Calm   2 mph /  3.2 km/h 64 % 0 in /  0.0 mm
19:27 80.4 °F /  26.9 °C 60.1 °F /  15.6 °C 29.8 in /  1009.0 hPa SSE 8.1 mph /  13.0 km/h 8.1 mph /  13.0 km/h 50 % 0 in /  0.0 mm
19:32 80.1 °F /  26.7 °C 59.7 °F /  15.4 °C 29.8 in /  1009.0 hPa ESE 10.5 mph /  16.9 km/h 10.5 mph /  16.9 km/h 50 % 0 in /  0.0 mm
19:35 73.6 °F /  23.1 °C 60.6 °F /  15.9 °C 29.8 in /  1010.7 hPa Calm   2 mph /  3.2 km/h 64 % 0 in /  0.0 mm
19:37 79.9 °F /  26.6 °C 60.1 °F /  15.6 °C 29.8 in /  1009.0 hPa ESE 5.8 mph /  9.3 km/h 5.8 mph /  9.3 km/h 51 % 0 in /  0.0 mm
19:42 79.3 °F /  26.3 °C 59.5 °F /  15.3 °C 29.8 in /  1009.0 hPa SSW 6.9 mph /  11.1 km/h 6.9 mph /  11.1 km/h 51 % 0 in /  0.0 mm
19:45 73.4 °F /  23.0 °C 60.4 °F /  15.8 °C 29.8 in /  1010.0 hPa Calm   1 mph /  1.6 km/h 64 % 0 in /  0.0 mm
19:48 79.7 °F /  26.5 °C 60.4 °F /  15.8 °C 29.8 in /  1009.0 hPa East 5.8 mph /  9.3 km/h 5.8 mph /  9.3 km/h 52 % 0 in /  0.0 mm
19:53 79.5 °F /  26.4 °C 60.4 °F /  15.8 °C 29.8 in /  1009.0 hPa East 5.8 mph /  9.3 km/h 5.8 mph /  9.3 km/h 52 % 0 in /  0.0 mm
19:55 73.2 °F /  22.9 °C 60.6 °F /  15.9 °C 29.8 in /  1010.0 hPa Calm     65 % 0 in /  0.0 mm
19:56 79.5 °F /  26.4 °C 60.4 °F /  15.8 °C 29.8 in /  1009.0 hPa South 4.6 mph /  7.4 km/h 4.6 mph /  7.4 km/h 52 % 0 in /  0.0 mm
20:01 79.2 °F /  26.2 °C 60.6 °F /  15.9 °C 29.8 in /  1009.0 hPa SE 10.4 mph /  16.7 km/h 10.4 mph /  16.7 km/h 53 % 0 in /  0.0 mm
20:05 73 °F /  22.8 °C 60.6 °F /  15.9 °C 29.8 in /  1010.0 hPa Calm   1 mph /  1.6 km/h 65 % 0 in /  0.0 mm
20:06 78.6 °F /  25.9 °C 60.1 °F /  15.6 °C 29.8 in /  1009.0 hPa SSE 5.9 mph /  9.5 km/h 5.9 mph /  9.5 km/h 53 % 0 in /  0.0 mm
20:11 78.3 °F /  25.7 °C 59.7 °F /  15.4 °C 29.8 in /  1009.0 hPa SSE 5.8 mph /  9.3 km/h 5.8 mph /  9.3 km/h 53 % 0 in /  0.0 mm
20:15 73 °F /  22.8 °C 61 °F /  16.1 °C 29.8 in /  1010.0 hPa Calm   1 mph /  1.6 km/h 66 % 0 in /  0.0 mm
20:16 78.1 °F /  25.6 °C 60.1 °F /  15.6 °C 29.8 in /  1009.0 hPa ESE 5.8 mph /  9.3 km/h 5.8 mph /  9.3 km/h 54 % 0 in /  0.0 mm
20:21 77.9 °F /  25.5 °C 59.9 °F /  15.5 °C 29.8 in /  1010.0 hPa SE 5.8 mph /  9.3 km/h 5.8 mph /  9.3 km/h 54 % 0 in /  0.0 mm
20:25 73 °F /  22.8 °C 61 °F /  16.1 °C 29.8 in /  1010.0 hPa North 1 mph /  1.6 km/h 1 mph /  1.6 km/h 66 % 0 in /  0.0 mm
20:26 77.5 °F /  25.3 °C 59.5 °F /  15.3 °C 29.8 in /  1010.0 hPa South 10.4 mph /  16.7 km/h 10.4 mph /  16.7 km/h 54 % 0 in /  0.0 mm
20:32 77.5 °F /  25.3 °C 60.1 °F /  15.6 °C 29.8 in /  1010.0 hPa SE 4.6 mph /  7.4 km/h 4.6 mph /  7.4 km/h 55 % 0 in /  0.0 mm
20:35 73 °F /  22.8 °C 61 °F /  16.1 °C 29.8 in /  1010.0 hPa Calm   1 mph /  1.6 km/h 66 % 0 in /  0.0 mm
20:37 77.2 °F /  25.1 °C 60.3 °F /  15.7 °C 29.8 in /  1010.0 hPa ESE 5.8 mph /  9.3 km/h 5.8 mph /  9.3 km/h 56 % 0 in /  0.0 mm
20:43 77 °F /  25.0 °C 60.6 °F /  15.9 °C 29.8 in /  1010.0 hPa East 6.9 mph /  11.1 km/h 6.9 mph /  11.1 km/h 57 % 0 in /  0.0 mm
20:45 73 °F /  22.8 °C 61 °F /  16.1 °C 29.8 in /  1010.0 hPa Calm   1 mph /  1.6 km/h 66 % 0 in /  0.0 mm
20:48 77 °F /  25.0 °C 60.6 °F /  15.9 °C 29.8 in /  1010.0 hPa SE 5.8 mph /  9.3 km/h 5.8 mph /  9.3 km/h 57 % 0 in /  0.0 mm
20:53 76.6 °F /  24.8 °C 60.8 °F /  16.0 °C 29.8 in /  1010.0 hPa ENE 6.9 mph /  11.1 km/h 6.9 mph /  11.1 km/h 58 % 0 in /  0.0 mm
20:55 72.9 °F /  22.7 °C 60.8 °F /  16.0 °C 29.8 in /  1010.0 hPa Calm     66 % 0 in /  0.0 mm
20:58 76.8 °F /  24.9 °C 61 °F /  16.1 °C 29.8 in /  1010.0 hPa ESE 7.4 mph /  11.9 km/h 7.4 mph /  11.9 km/h 58 % 0 in /  0.0 mm
21:03 76.5 °F /  24.7 °C 60.6 °F /  15.9 °C 29.8 in /  1010.0 hPa SE 8.1 mph /  13.0 km/h 8.1 mph /  13.0 km/h 58 % 0 in /  0.0 mm
21:05 72.5 °F /  22.5 °C 60.4 °F /  15.8 °C 29.8 in /  1010.0 hPa Calm     66 % 0 in /  0.0 mm
21:08 76.3 °F /  24.6 °C 60.4 °F /  15.8 °C 29.8 in /  1010.0 hPa ENE 9.2 mph /  14.8 km/h 9.2 mph /  14.8 km/h 58 % 0 in /  0.0 mm
21:13 76.3 °F /  24.6 °C 60.4 °F /  15.8 °C 29.8 in /  1010.0 hPa ENE 6.9 mph /  11.1 km/h 6.9 mph /  11.1 km/h 58 % 0 in /  0.0 mm
21:15 72.3 °F /  22.4 °C 60.3 °F /  15.7 °C 29.8 in /  1010.0 hPa Calm     66 % 0 in /  0.0 mm
21:18 76.1 °F /  24.5 °C 60.6 °F /  15.9 °C 29.8 in /  1010.0 hPa ENE 5.8 mph /  9.3 km/h 5.8 mph /  9.3 km/h 59 % 0 in /  0.0 mm
21:23 75.9 °F /  24.4 °C 60.6 °F /  15.9 °C 29.8 in /  1010.0 hPa ESE 7.6 mph /  12.2 km/h 7.6 mph /  12.2 km/h 59 % 0 in /  0.0 mm
21:25 72.3 °F /  22.4 °C 60.3 °F /  15.7 °C 29.8 in /  1010.0 hPa Calm     66 % 0 in /  0.0 mm
21:28 75.6 °F /  24.2 °C 60.3 °F /  15.7 °C 29.8 in /  1010.0 hPa SSE 6.9 mph /  11.1 km/h 6.9 mph /  11.1 km/h 59 % 0 in /  0.0 mm
21:33 75.6 °F /  24.2 °C 60.3 °F /  15.7 °C 29.8 in /  1010.0 hPa East 4.6 mph /  7.4 km/h 4.6 mph /  7.4 km/h 59 % 0 in /  0.0 mm
21:35 72 °F /  22.2 °C 60.4 °F /  15.8 °C 29.8 in /  1010.0 hPa Calm   1 mph /  1.6 km/h 67 % 0 in /  0.0 mm
21:38 75.4 °F /  24.1 °C 60.1 °F /  15.6 °C 29.8 in /  1010.0 hPa ENE 5.8 mph /  9.3 km/h 5.8 mph /  9.3 km/h 59 % 0 in /  0.0 mm
21:43 75.6 °F /  24.2 °C 60.3 °F /  15.7 °C 29.8 in /  1010.0 hPa South 4.6 mph /  7.4 km/h 4.6 mph /  7.4 km/h 59 % 0 in /  0.0 mm
21:45 71.4 °F /  21.9 °C 60.3 °F /  15.7 °C 29.8 in /  1010.0 hPa SW 1 mph /  1.6 km/h 2 mph /  3.2 km/h 68 % 0 in /  0.0 mm
21:48 75.4 °F /  24.1 °C 60.1 °F /  15.6 °C 29.8 in /  1010.0 hPa ESE 5.8 mph /  9.3 km/h 5.8 mph /  9.3 km/h 59 % 0 in /  0.0 mm
21:53 75.2 °F /  24.0 °C 59.9 °F /  15.5 °C 29.8 in /  1010.0 hPa ESE 5.8 mph /  9.3 km/h 5.9 mph /  9.5 km/h 59 % 0 in /  0.0 mm
21:55 71.1 °F /  21.7 °C 60.1 °F /  15.6 °C 29.8 in /  1010.0 hPa SW 1 mph /  1.6 km/h 2 mph /  3.2 km/h 68 % 0 in /  0.0 mm
21:58 75.2 °F /  24.0 °C 59.9 °F /  15.5 °C 29.8 in /  1010.0 hPa ESE 4.6 mph /  7.4 km/h 4.6 mph /  7.4 km/h 59 % 0 in /  0.0 mm
22:03 75.2 °F /  24.0 °C 59.9 °F /  15.5 °C 29.8 in /  1010.0 hPa ESE 3.5 mph /  5.6 km/h 3.5 mph /  5.6 km/h 59 % 0 in /  0.0 mm
22:05 70.7 °F /  21.5 °C 60.1 °F /  15.6 °C 29.8 in /  1010.0 hPa WSW 1 mph /  1.6 km/h 2 mph /  3.2 km/h 69 % 0 in /  0.0 mm
22:08 75.2 °F /  24.0 °C 59.9 °F /  15.5 °C 29.8 in /  1010.0 hPa ESE 2.3 mph /  3.7 km/h 2.3 mph /  3.7 km/h 59 % 0 in /  0.0 mm
22:14 75 °F /  23.9 °C 60.3 °F /  15.7 °C 29.8 in /  1010.0 hPa SE 5.8 mph /  9.3 km/h 5.8 mph /  9.3 km/h 60 % 0 in /  0.0 mm
22:15 70.7 °F /  21.5 °C 60.1 °F /  15.6 °C 29.8 in /  1010.0 hPa Calm   2 mph /  3.2 km/h 69 % 0 in /  0.0 mm
22:19 75 °F /  23.9 °C 60.3 °F /  15.7 °C 29.8 in /  1010.0 hPa SE 3.5 mph /  5.6 km/h 3.5 mph /  5.6 km/h 60 % 0 in /  0.0 mm
22:24 74.8 °F /  23.8 °C 60.1 °F /  15.6 °C 29.8 in /  1010.0 hPa WSW 2.3 mph /  3.7 km/h 2.3 mph /  3.7 km/h 60 % 0 in /  0.0 mm
22:25 70.7 °F /  21.5 °C 60.4 °F /  15.8 °C 29.8 in /  1010.0 hPa West 1 mph /  1.6 km/h 1 mph /  1.6 km/h 70 % 0 in /  0.0 mm
22:29 74.8 °F /  23.8 °C 60.1 °F /  15.6 °C 29.8 in /  1010.0 hPa SE 3.5 mph /  5.6 km/h 3.5 mph /  5.6 km/h 60 % 0 in /  0.0 mm
22:34 74.8 °F /  23.8 °C 60.4 °F /  15.8 °C 29.8 in /  1010.0 hPa SE 2.3 mph /  3.7 km/h 2.3 mph /  3.7 km/h 61 % 0 in /  0.0 mm
22:39 74.7 °F /  23.7 °C 60.3 °F /  15.7 °C 29.8 in /  1010.7 hPa East 3.6 mph /  5.8 km/h 3.6 mph /  5.8 km/h 61 % 0 in /  0.0 mm
22:44 74.7 °F /  23.7 °C 60.8 °F /  16.0 °C 29.8 in /  1010.7 hPa ESE 3.5 mph /  5.6 km/h 3.5 mph /  5.6 km/h 62 % 0 in /  0.0 mm
22:45 70.7 °F /  21.5 °C 60.4 °F /  15.8 °C 29.8 in /  1010.0 hPa ENE 1 mph /  1.6 km/h   70 % 0 in /  0.0 mm
22:49 74.7 °F /  23.7 °C 60.8 °F /  16.0 °C 29.8 in /  1010.7 hPa SSW 2.3 mph /  3.7 km/h 2.3 mph /  3.7 km/h 62 % 0 in /  0.0 mm
22:55 74.5 °F /  23.6 °C 60.6 °F /  15.9 °C 29.8 in /  1010.7 hPa Calm   2 mph /  3.2 km/h 62 % 0 in /  0.0 mm
23:00 74.5 °F /  23.6 °C 60.6 °F /  15.9 °C 29.8 in /  1010.7 hPa SSE 1 mph /  1.6 km/h 3 mph /  4.8 km/h 62 % 0 in /  0.0 mm
23:05 74.5 °F /  23.6 °C 60.6 °F /  15.9 °C 29.8 in /  1010.7 hPa ENE 3.1 mph /  5.0 km/h   62 % 0 in /  0.0 mm
23:10 74.5 °F /  23.6 °C 61.2 °F /  16.2 °C 29.8 in /  1010.0 hPa ESE 3.5 mph /  5.6 km/h 3.5 mph /  5.6 km/h 63 % 0 in /  0.0 mm
23:15 74.3 °F /  23.5 °C 61 °F /  16.1 °C 29.8 in /  1010.0 hPa SSE 2.4 mph /  3.9 km/h 2.4 mph /  3.9 km/h 63 % 0 in /  0.0 mm
23:20 74.3 °F /  23.5 °C 61 °F /  16.1 °C 29.8 in /  1010.0 hPa SSW 2.3 mph /  3.7 km/h   63 % 0 in /  0.0 mm
23:25 74.1 °F /  23.4 °C 60.3 °F /  15.7 °C 29.8 in /  1010.0 hPa SW 2.3 mph /  3.7 km/h 2.3 mph /  3.7 km/h 62 % 0 in /  0.0 mm
23:30 73.9 °F /  23.3 °C 60.4 °F /  15.8 °C 29.8 in /  1010.0 hPa SW 2.3 mph /  3.7 km/h 2.3 mph /  3.7 km/h 63 % 0 in /  0.0 mm
23:35 73.8 °F /  23.2 °C 60.4 °F /  15.8 °C 29.8 in /  1010.0 hPa Calm   2 mph /  3.2 km/h 63 % 0 in /  0.0 mm
23:40 73.8 °F /  23.2 °C 60.4 °F /  15.8 °C 29.8 in /  1010.7 hPa WSW 2.3 mph /  3.7 km/h 2.3 mph /  3.7 km/h 63 % 0 in /  0.0 mm
23:45 73.8 °F /  23.2 °C 60.4 °F /  15.8 °C 29.8 in /  1010.7 hPa SE 1.6 mph /  2.6 km/h 1.6 mph /  2.6 km/h 63 % 0 in /  0.0 mm
23:50 73.8 °F /  23.2 °C 60.4 °F /  15.8 °C 29.8 in /  1010.7 hPa Calm   1 mph /  1.6 km/h 63 % 0 in /  0.0 mm
23:55 73.8 °F /  23.2 °C 60.8 °F /  16.0 °C 29.8 in /  1010.7 hPa ENE 2.2 mph /  3.5 km/h 2.2 mph /  3.5 km/h 64 % 0 in /  0.0 mm
Meteo Sesrovires
Elogis d' Weather Underground - 3.75 mb

Guio original per  Jim McMurry - jmcmurry@mwt.net Adaptat per a la plantilla per  Wim van der Kuil - Leuven-Template.eu

Trobareu la nostra informacio del temps tambe a:

Weather Underground

AWEKAS